Time;durP1;ratioP1;P1;durP2;ratioP2;P2;SDS_P1;SDS_P2;PMS_P1;PMS_P2;Temp;Humidity;BMP_temperature;BMP_pressure;BME280_temperature;BME280_humidity;BME280_pressure;Samples;Min_cycle;Max_cycle;Signal;HPM_P1;HPM_P2
2021/04/10 00:01:33;;;;;;;16.03;11.70;;;;;;;9.12;61.98;99942.31;5120755;27;20505;-71
2021/04/10 00:03:59;;;;;;;14.73;11.07;;;;;;;9.12;62.09;99950.31;5121851;28;20445;-71
2021/04/10 00:06:26;;;;;;;14.67;11.73;;;;;;;9.15;62.10;99946.53;5124432;27;20895;-70
2021/04/10 00:08:52;;;;;;;13.73;11.63;;;;;;;9.18;61.95;99952.47;5124697;28;20441;-70
2021/04/10 00:11:19;;;;;;;12.53;11.23;;;;;;;9.26;62.00;99956.25;5124431;28;20484;-71
2021/04/10 00:13:45;;;;;;;13.73;11.40;;;;;;;9.37;61.55;99956.09;5125171;28;20461;-71
2021/04/10 00:16:11;;;;;;;13.77;11.40;;;;;;;9.30;61.69;99950.47;5124202;28;20499;-71
2021/04/10 00:18:38;;;;;;;17.13;12.00;;;;;;;9.27;61.73;99948.09;5125105;28;20530;-71
2021/04/10 00:21:05;;;;;;;16.13;11.30;;;;;;;9.17;62.05;99944.59;5124218;28;20520;-71
2021/04/10 00:23:31;;;;;;;17.93;11.60;;;;;;;9.17;62.31;99955.25;5125109;28;20998;-71
2021/04/10 00:25:57;;;;;;;13.07;11.10;;;;;;;9.26;61.93;99949.06;5124014;28;20469;-71
2021/04/10 00:28:24;;;;;;;13.13;10.27;;;;;;;9.28;61.81;99952.44;5124608;28;20434;-71
2021/04/10 00:30:50;;;;;;;19.00;12.20;;;;;;;9.00;62.84;99954.09;5121917;27;20834;-70
2021/04/10 00:33:16;;;;;;;14.43;11.87;;;;;;;9.28;62.13;99957.78;5128393;27;20473;-70
2021/04/10 00:35:42;;;;;;;14.83;12.00;;;;;;;9.25;62.23;99947.38;5135914;27;20507;-70
2021/04/10 00:38:08;;;;;;;15.73;12.07;;;;;;;9.32;61.95;99964.53;5134020;27;20438;-71
2021/04/10 00:40:34;;;;;;;18.20;12.13;;;;;;;9.26;62.04;99962.41;5134191;27;20581;-72
2021/04/10 00:43:01;;;;;;;19.07;12.27;;;;;;;9.38;61.91;99960.47;5131955;27;20464;-71
2021/04/10 00:45:28;;;;;;;15.90;12.77;;;;;;;9.39;61.79;99957.66;5135524;27;20593;-71
2021/04/10 00:47:54;;;;;;;22.07;12.93;;;;;;;9.26;62.09;99950.91;5131653;27;20958;-71
2021/04/10 00:50:20;;;;;;;15.47;12.37;;;;;;;9.12;62.65;99949.50;5128604;27;20456;-70
2021/04/10 00:52:47;;;;;;;18.23;13.30;;;;;;;9.13;62.75;99953.84;5129296;27;21015;-71
2021/04/10 00:55:13;;;;;;;19.43;12.50;;;;;;;9.35;62.07;99955.41;5130238;27;20449;-71
2021/04/10 00:57:39;;;;;;;18.07;12.73;;;;;;;9.51;61.62;99962.84;5133311;27;20469;-72
2021/04/10 01:00:08;;;;;;;19.03;12.57;;;;;;;9.39;61.98;99948.78;5135462;27;20434;-70
2021/04/10 01:02:35;;;;;;;18.17;12.53;;;;;;;9.30;62.19;99952.31;5131629;27;20429;-72
2021/04/10 01:05:02;;;;;;;15.33;12.73;;;;;;;9.43;62.04;99966.22;5135505;27;20483;-72
2021/04/10 01:07:28;;;;;;;17.30;12.10;;;;;;;9.45;61.87;99963.41;5134193;27;20580;-70
2021/04/10 01:09:54;;;;;;;14.70;12.00;;;;;;;9.45;61.79;99958.06;5133518;27;20708;-72
2021/04/10 01:12:38;;;;;;;19.70;13.23;;;;;;;9.02;63.45;99966.31;5132843;27;20486;-72
2021/04/10 01:15:13;;;;;;;18.20;12.20;;;;;;;9.07;63.61;99962.41;5133251;27;20481;-66
2021/04/10 01:17:45;;;;;;;18.53;13.20;;;;;;;8.89;64.42;99965.72;5132286;27;20939;-71
2021/04/10 01:20:32;;;;;;;21.63;12.60;;;;;;;8.61;65.69;99964.66;5132826;27;20437;-72
2021/04/10 01:23:32;;;;;;;18.40;12.27;;;;;;;8.89;65.06;99957.75;5131015;27;20519;-71
2021/04/10 01:26:19;;;;;;;18.37;12.60;;;;;;;9.35;63.75;99952.72;5132202;27;20466;-70
2021/04/10 01:28:53;;;;;;;18.93;13.00;;;;;;;9.11;63.75;99953.13;5128640;27;20450;-71
2021/04/10 01:31:23;;;;;;;20.70;12.23;;;;;;;8.32;66.79;99961.84;5130716;27;20660;-71
2021/04/10 01:33:53;;;;;;;20.07;12.60;;;;;;;8.11;67.45;99960.91;5132893;27;20531;-71
2021/04/10 01:36:22;;;;;;;22.40;12.53;;;;;;;8.28;67.49;99966.59;5132086;27;20516;-69
2021/04/10 01:38:50;;;;;;;19.37;13.80;;;;;;;8.39;67.53;99969.19;5132259;27;20495;-71
2021/04/10 01:41:16;;;;;;;20.83;13.43;;;;;;;8.37;67.12;99971.13;5130546;27;20561;-69
2021/04/10 01:43:43;;;;;;;19.10;12.13;;;;;;;8.24;67.41;99970.50;5134404;27;20429;-71
2021/04/10 01:46:10;;;;;;;24.50;12.83;;;;;;;8.47;66.45;99981.84;5131716;27;20466;-69
2021/04/10 01:48:38;;;;;;;24.90;11.47;;;;;;;8.51;66.26;99983.28;5132906;27;20575;-71
2021/04/10 01:51:05;;;;;;;22.87;11.10;;;;;;;8.78;65.55;99987.16;5132443;27;20480;-71
2021/04/10 01:53:33;;;;;;;18.90;13.00;;;;;;;8.84;65.28;99984.78;5133217;27;20530;-70
2021/04/10 01:56:00;;;;;;;22.20;10.90;;;;;;;8.89;64.67;99991.53;5132866;27;20523;-70
2021/04/10 01:58:26;;;;;;;19.03;10.80;;;;;;;8.79;65.10;99997.69;5133393;27;20502;-71
2021/04/10 02:00:53;;;;;;;16.27;11.47;;;;;;;8.88;64.99;99993.38;5129111;27;21260;-72
2021/04/10 02:03:20;;;;;;;14.87;10.07;;;;;;;8.85;64.76;100001.63;5131029;27;20893;-68
2021/04/10 02:05:48;;;;;;;15.63;10.03;;;;;;;8.76;64.62;100013.09;5131369;27;20474;-71
2021/04/10 02:08:15;;;;;;;18.60;11.43;;;;;;;8.96;64.15;100004.19;5128896;27;20450;-72
2021/04/10 02:10:42;;;;;;;17.40;10.33;;;;;;;9.08;63.49;99999.59;5132227;27;20480;-72
2021/04/10 02:13:09;;;;;;;23.50;9.90;;;;;;;9.23;63.00;100002.69;5131607;27;20947;-72
2021/04/10 02:15:35;;;;;;;17.30;9.73;;;;;;;9.08;63.02;99996.94;5131809;27;20511;-72
2021/04/10 02:18:01;;;;;;;15.00;9.20;;;;;;;8.93;63.36;99988.47;5133203;27;20513;-71
2021/04/10 02:20:28;;;;;;;16.10;8.90;;;;;;;8.77;63.46;99996.16;5133726;27;20506;-71
2021/04/10 02:22:56;;;;;;;13.60;8.80;;;;;;;8.71;63.39;99992.19;5132723;27;20466;-72
2021/04/10 02:25:25;;;;;;;13.60;9.10;;;;;;;9.01;62.74;99993.13;5131644;27;20491;-72
2021/04/10 02:27:51;;;;;;;16.43;9.20;;;;;;;9.18;62.66;99999.59;5132985;27;20818;-72
2021/04/10 02:30:18;;;;;;;15.70;8.17;;;;;;;9.19;62.79;100001.28;5132006;27;20438;-72
2021/04/10 02:32:48;;;;;;;13.43;8.23;;;;;;;9.17;62.83;100000.59;5131780;27;20437;-71
2021/04/10 02:35:19;;;;;;;16.47;7.77;;;;;;;9.11;63.23;99993.13;5126061;27;20492;-72
2021/04/10 02:37:46;;;;;;;12.87;7.73;;;;;;;9.04;62.88;99992.84;5132454;27;21074;-71
2021/04/10 02:40:14;;;;;;;14.93;8.60;;;;;;;8.98;63.01;99991.56;5131068;27;20474;-72
2021/04/10 02:42:43;;;;;;;12.73;8.50;;;;;;;9.13;62.58;99996.50;5132739;27;20500;-72
2021/04/10 02:45:10;;;;;;;12.07;7.57;;;;;;;9.12;62.02;100001.00;5130961;27;20429;-72
2021/04/10 02:47:38;;;;;;;13.93;7.93;;;;;;;9.17;62.47;100000.59;5133252;27;20445;-71
2021/04/10 02:50:05;;;;;;;14.90;7.97;;;;;;;9.01;62.48;99996.63;5133617;27;20453;-72
2021/04/10 02:52:34;;;;;;;16.43;8.00;;;;;;;9.11;62.65;99993.13;5110898;28;20650;-73
2021/04/10 02:55:03;;;;;;;11.23;7.20;;;;;;;8.85;63.17;99991.81;5111397;28;20514;-72
2021/04/10 02:57:30;;;;;;;16.43;7.10;;;;;;;8.90;63.09;99990.56;5109627;28;20530;-72
2021/04/10 02:59:59;;;;;;;12.87;7.03;;;;;;;9.10;62.72;99992.31;5111097;28;20467;-73
2021/04/10 03:02:25;;;;;;;12.90;6.77;;;;;;;9.15;62.29;99989.19;5111178;28;20505;-72
2021/04/10 03:04:52;;;;;;;10.83;7.00;;;;;;;8.90;61.98;99983.41;5110507;28;20424;-73
2021/04/10 03:07:19;;;;;;;13.77;7.50;;;;;;;8.89;62.38;99980.88;5111757;28;20538;-72
2021/04/10 03:09:46;;;;;;;15.27;6.70;;;;;;;8.65;63.32;99988.25;5109881;28;20564;-72
2021/04/10 03:12:14;;;;;;;12.00;7.20;;;;;;;8.23;64.25;99985.66;5106176;28;20470;-72
2021/04/10 03:14:40;;;;;;;12.87;7.33;;;;;;;8.23;64.77;99984.81;5109817;28;20495;-72
2021/04/10 03:17:07;;;;;;;18.13;7.60;;;;;;;8.72;63.28;99993.03;5111929;28;20475;-72
2021/04/10 03:19:36;;;;;;;11.97;7.27;;;;;;;8.78;62.94;100001.31;5108731;28;20438;-72
2021/04/10 03:22:02;;;;;;;14.23;8.77;;;;;;;8.41;63.99;99996.50;5109326;28;20517;-71
2021/04/10 03:24:28;;;;;;;13.47;8.17;;;;;;;8.39;64.31;99994.97;5112878;28;20568;-72
2021/04/10 03:26:55;;;;;;;14.20;7.80;;;;;;;8.57;63.94;99996.06;5110353;28;20934;-72
2021/04/10 03:29:22;;;;;;;12.77;8.00;;;;;;;8.43;64.80;99991.94;5107123;28;20479;-70
2021/04/10 03:31:49;;;;;;;15.80;8.50;;;;;;;8.29;64.89;99995.75;5112417;28;20489;-71
2021/04/10 03:34:15;;;;;;;15.53;8.17;;;;;;;8.45;64.58;99997.13;5108157;28;20479;-72
2021/04/10 03:36:41;;;;;;;13.53;8.77;;;;;;;8.57;64.35;100012.03;5110747;28;20620;-72
2021/04/10 03:39:07;;;;;;;16.30;8.70;;;;;;;8.59;64.48;100011.91;5111576;28;20462;-71
2021/04/10 03:41:34;;;;;;;15.23;9.17;;;;;;;8.33;65.11;100004.31;5111598;28;20494;-72
2021/04/10 03:44:00;;;;;;;12.47;8.80;;;;;;;8.19;65.54;100012.66;5114802;28;20443;-71
2021/04/10 03:46:27;;;;;;;17.03;10.17;;;;;;;8.24;65.71;100011.28;5114204;28;20490;-72
2021/04/10 03:48:53;;;;;;;19.23;10.27;;;;;;;8.19;65.89;100013.50;5111361;28;20461;-72
2021/04/10 03:51:19;;;;;;;16.23;10.00;;;;;;;8.33;65.62;100012.31;5113816;28;20474;-72
2021/04/10 03:53:45;;;;;;;18.17;10.10;;;;;;;8.30;65.95;100016.09;5115881;28;20509;-72
2021/04/10 03:56:11;;;;;;;17.00;9.47;;;;;;;8.42;65.54;100016.00;5113018;28;20506;-72
2021/04/10 03:58:37;;;;;;;18.23;10.67;;;;;;;8.37;65.68;100027.06;5114986;28;20438;-73
2021/04/10 04:01:04;;;;;;;16.40;10.27;;;;;;;8.27;65.90;100018.19;5113229;28;20508;-71
2021/04/10 04:03:30;;;;;;;21.13;12.20;;;;;;;8.18;66.31;100018.97;5116530;28;20492;-72
2021/04/10 04:05:57;;;;;;;20.20;11.83;;;;;;;8.40;65.67;100032.16;5110283;28;20503;-73
2021/04/10 04:08:23;;;;;;;23.07;11.40;;;;;;;8.50;65.34;100021.53;5115591;28;20875;-71
2021/04/10 04:10:49;;;;;;;21.93;11.90;;;;;;;8.47;65.39;100022.66;5113605;28;20503;-72
2021/04/10 04:13:15;;;;;;;18.93;10.57;;;;;;;8.56;65.43;100022.84;5116040;28;20434;-72
2021/04/10 04:15:41;;;;;;;21.40;12.03;;;;;;;8.30;66.27;100026.75;5112568;28;20497;-72
2021/04/10 04:18:07;;;;;;;18.60;11.73;;;;;;;8.20;66.55;100022.34;5116383;28;20435;-71
2021/04/10 04:20:34;;;;;;;24.50;12.20;;;;;;;8.14;66.78;100012.19;5109846;28;21040;-71
2021/04/10 04:23:00;;;;;;;18.00;12.07;;;;;;;8.24;66.58;100023.75;5113577;28;20569;-72
2021/04/10 04:25:27;;;;;;;24.23;13.30;;;;;;;7.94;67.79;100027.22;5113475;28;20481;-72
2021/04/10 04:27:53;;;;;;;19.57;12.20;;;;;;;8.13;67.51;100042.50;5107865;28;20446;-72
2021/04/10 04:30:20;;;;;;;22.53;12.67;;;;;;;8.13;67.26;100042.50;5112312;28;20438;-72
2021/04/10 04:32:46;;;;;;;23.30;14.87;;;;;;;8.04;67.42;100038.78;5113208;28;20935;-72
2021/04/10 04:35:12;;;;;;;23.43;13.33;;;;;;;7.99;68.00;100047.16;5115067;28;20478;-72
2021/04/10 04:37:40;;;;;;;26.57;14.33;;;;;;;7.80;68.54;100044.34;5111792;28;20481;-72
2021/04/10 04:40:08;;;;;;;21.33;13.93;;;;;;;7.81;68.44;100048.69;5113554;28;20446;-72
2021/04/10 04:42:34;;;;;;;24.27;14.50;;;;;;;7.81;68.67;100052.22;5108982;28;20435;-72
2021/04/10 04:45:00;;;;;;;28.63;15.10;;;;;;;7.70;69.15;100042.44;5111260;28;20471;-72
2021/04/10 04:47:27;;;;;;;24.80;15.40;;;;;;;7.75;68.85;100050.03;5113358;28;20477;-71
2021/04/10 04:49:53;;;;;;;27.10;16.70;;;;;;;7.49;69.60;100049.53;5114183;28;20458;-71
2021/04/10 04:52:19;;;;;;;25.60;16.77;;;;;;;7.45;69.35;100059.59;5113721;28;20491;-71
2021/04/10 04:54:46;;;;;;;23.00;14.70;;;;;;;7.81;68.42;100065.50;5112773;28;20616;-72
2021/04/10 04:57:12;;;;;;;29.40;16.27;;;;;;;7.40;69.21;100068.91;5112095;28;20474;-72
2021/04/10 04:59:38;;;;;;;29.43;17.43;;;;;;;7.54;69.24;100071.28;5111781;28;20447;-72
2021/04/10 05:02:04;;;;;;;39.10;22.27;;;;;;;7.40;69.43;100082.22;5113217;28;20540;-71
2021/04/10 05:04:30;;;;;;;34.03;19.57;;;;;;;7.52;68.87;100089.19;5112740;28;20458;-72
2021/04/10 05:06:56;;;;;;;35.83;19.90;;;;;;;7.79;68.09;100093.22;5112925;28;20508;-71
2021/04/10 05:09:23;;;;;;;25.10;14.20;;;;;;;7.60;68.09;100093.88;5112114;28;20518;-72
2021/04/10 05:11:51;;;;;;;25.83;13.07;;;;;;;7.43;68.08;100095.25;5111675;28;20503;-71
2021/04/10 05:14:17;;;;;;;22.03;12.50;;;;;;;7.61;67.07;100090.25;5111932;28;20516;-71
2021/04/10 05:16:43;;;;;;;23.23;13.60;;;;;;;7.53;67.74;100093.53;5108900;28;20475;-71
2021/04/10 05:19:09;;;;;;;21.20;11.80;;;;;;;7.44;67.39;100095.13;5110777;28;20477;-71
2021/04/10 05:21:35;;;;;;;20.40;11.70;;;;;;;7.27;68.06;100095.63;5112389;28;20475;-71
2021/04/10 05:24:02;;;;;;;18.13;11.57;;;;;;;7.23;68.10;100105.69;5113817;28;20503;-71
2021/04/10 05:26:28;;;;;;;17.90;11.60;;;;;;;7.08;68.12;100114.88;5113584;28;20511;-70
2021/04/10 05:28:55;;;;;;;16.70;9.90;;;;;;;7.43;67.47;100109.41;5110987;28;20430;-71
2021/04/10 05:31:21;;;;;;;17.00;9.83;;;;;;;7.57;66.79;100110.94;5113422;28;21009;-70
2021/04/10 05:33:47;;;;;;;19.70;10.83;;;;;;;7.66;66.39;100114.66;5114388;28;20530;-71
2021/04/10 05:36:13;;;;;;;25.03;10.53;;;;;;;7.26;67.24;100123.22;5112022;28;20566;-71
2021/04/10 05:38:39;;;;;;;22.80;10.67;;;;;;;7.59;66.30;100134.78;5114303;28;20438;-71
2021/04/10 05:41:06;;;;;;;18.17;8.87;;;;;;;7.46;66.69;100146.38;5112391;28;20504;-70
2021/04/10 05:43:33;;;;;;;20.23;9.10;;;;;;;7.57;66.25;100132.22;5113466;28;20450;-72
2021/04/10 05:46:00;;;;;;;15.10;8.47;;;;;;;7.60;65.94;100134.63;5109947;28;20481;-72
2021/04/10 05:48:26;;;;;;;18.57;9.00;;;;;;;7.76;66.03;100131.59;5111353;28;20455;-71
2021/04/10 05:50:54;;;;;;;19.37;10.30;;;;;;;7.58;66.43;100141.88;5111012;28;20454;-70
2021/04/10 05:53:20;;;;;;;17.63;9.43;;;;;;;7.41;67.01;100137.91;5111095;28;20442;-72
2021/04/10 05:55:46;;;;;;;14.67;8.93;;;;;;;7.67;66.33;100138.50;5110269;28;20983;-72
2021/04/10 05:58:12;;;;;;;22.77;9.80;;;;;;;7.79;65.73;100136.63;5106708;28;20538;-72
2021/04/10 06:00:38;;;;;;;17.73;9.07;;;;;;;7.63;66.41;100137.03;5110515;28;20497;-73
2021/04/10 06:03:07;;;;;;;16.50;8.40;;;;;;;7.87;66.08;100128.88;5110153;28;20441;-71
2021/04/10 06:05:33;;;;;;;19.10;9.60;;;;;;;8.19;65.45;100136.00;5108147;28;20983;-72
2021/04/10 06:07:59;;;;;;;21.77;9.47;;;;;;;8.23;65.25;100148.09;5110006;28;20594;-73
2021/04/10 06:10:25;;;;;;;17.50;9.00;;;;;;;7.81;66.38;100153.34;5108268;28;20526;-73
2021/04/10 06:12:52;;;;;;;18.37;9.77;;;;;;;7.85;66.48;100152.09;5110181;28;20455;-72
2021/04/10 06:15:19;;;;;;;19.60;9.57;;;;;;;8.08;66.13;100147.53;5105136;28;20471;-73
2021/04/10 06:17:45;;;;;;;20.13;10.43;;;;;;;7.96;65.79;100145.91;5107587;28;20617;-73
2021/04/10 06:20:15;;;;;;;25.70;10.77;;;;;;;7.70;66.99;100143.53;5111008;28;20459;-72
2021/04/10 06:22:41;;;;;;;20.20;11.10;;;;;;;8.03;66.73;100143.56;5104185;28;20522;-72
2021/04/10 06:25:09;;;;;;;21.60;11.20;;;;;;;8.11;66.33;100149.13;5110695;28;20438;-73
2021/04/10 06:27:35;;;;;;;23.53;11.10;;;;;;;8.10;66.04;100144.75;5109712;28;20461;-73
2021/04/10 06:30:02;;;;;;;20.23;12.17;;;;;;;8.41;65.53;100153.69;5108311;28;20459;-74
2021/04/10 06:32:29;;;;;;;21.13;11.97;;;;;;;8.37;65.48;100154.09;5098974;28;20522;-72
2021/04/10 06:34:55;;;;;;;20.10;12.33;;;;;;;8.71;64.52;100154.75;5099930;28;20890;-73
2021/04/10 06:37:22;;;;;;;19.53;12.40;;;;;;;8.40;65.17;100161.81;5100243;28;20521;-73
2021/04/10 06:39:48;;;;;;;26.33;13.00;;;;;;;8.79;64.44;100162.94;5089874;28;20500;-73
2021/04/10 06:42:14;;;;;;;24.13;12.80;;;;;;;8.66;64.81;100168.50;5100229;28;20546;-74
2021/04/10 06:44:40;;;;;;;23.13;13.40;;;;;;;8.61;64.96;100172.50;5095163;28;20451;-74
2021/04/10 06:47:08;;;;;;;20.57;13.03;;;;;;;8.64;64.75;100182.91;5098986;28;20517;-73
2021/04/10 06:49:34;;;;;;;20.07;13.80;;;;;;;8.70;64.38;100174.41;5103386;28;20438;-74
2021/04/10 06:52:00;;;;;;;18.90;12.13;;;;;;;8.71;67.33;100180.56;5102413;28;20475;-69
2021/04/10 06:54:31;;;;;;;23.10;14.30;;;;;;;8.57;65.06;100177.25;5101561;28;20532;-71
2021/04/10 06:57:03;;;;;;;20.63;12.60;;;;;;;8.73;64.43;100186.63;5102041;28;20481;-72
2021/04/10 06:59:40;;;;;;;24.30;11.93;;;;;;;8.70;64.28;100182.41;5102802;28;20450;-72
2021/04/10 07:02:10;;;;;;;20.00;13.10;;;;;;;8.75;64.07;100179.34;5101777;28;20485;-74
2021/04/10 07:04:36;;;;;;;18.23;13.40;;;;;;;8.38;64.59;100185.06;5102798;28;20436;-73
2021/04/10 07:07:03;;;;;;;19.83;13.37;;;;;;;8.62;65.22;100182.22;5102222;28;20971;-73
2021/04/10 07:09:32;;;;;;;25.27;13.17;;;;;;;8.74;64.11;100185.66;5102222;28;20652;-71
2021/04/10 07:11:58;;;;;;;29.17;15.23;;;;;;;8.84;63.94;100186.56;5088565;28;20508;-69
2021/04/10 07:14:24;;;;;;;18.60;12.83;;;;;;;8.75;63.95;100182.88;5100459;28;20911;-71
2021/04/10 07:16:50;;;;;;;23.07;12.73;;;;;;;8.41;64.72;100177.66;5101040;28;20482;-73
2021/04/10 07:19:16;;;;;;;23.17;13.40;;;;;;;8.55;63.99;100184.53;5102937;28;20493;-72
2021/04/10 07:21:42;;;;;;;19.23;11.83;;;;;;;8.36;64.61;100165.72;5102290;28;20482;-72
2021/04/10 07:24:10;;;;;;;20.73;13.50;;;;;;;8.39;65.01;100160.97;5101687;28;20485;-72
2021/04/10 07:26:49;;;;;;;21.23;12.50;;;;;;;8.43;64.53;100169.59;5101986;28;20482;-71
2021/04/10 07:29:31;;;;;;;21.33;12.00;;;;;;;8.54;64.02;100172.22;5102410;28;20436;-71
2021/04/10 07:31:58;;;;;;;21.20;11.90;;;;;;;8.70;63.27;100184.19;5097410;28;20547;-71
2021/04/10 07:34:24;;;;;;;22.20;12.23;;;;;;;8.95;62.99;100186.47;5083804;28;20520;-72
2021/04/10 07:36:58;;;;;;;25.17;13.23;;;;;;;8.82;62.89;100188.53;5094596;28;20479;-71
2021/04/10 07:39:24;;;;;;;16.43;10.53;;;;;;;9.01;62.63;100193.97;5100179;28;20461;-71
2021/04/10 07:42:02;;;;;;;23.93;12.30;;;;;;;8.77;62.84;100199.56;5098241;28;20475;-73
2021/04/10 07:44:39;;;;;;;23.37;10.87;;;;;;;8.81;62.71;100203.66;5093635;28;20456;-71
2021/04/10 07:47:07;;;;;;;19.43;9.50;;;;;;;8.65;62.83;100205.94;5095103;28;20466;-75
2021/04/10 07:49:35;;;;;;;15.87;10.43;;;;;;;8.90;62.46;100204.69;5102122;28;20435;-73
2021/04/10 07:52:04;;;;;;;18.10;10.40;;;;;;;8.39;63.07;100203.59;5102080;28;20515;-70
2021/04/10 07:54:31;;;;;;;15.30;9.50;;;;;;;8.64;62.93;100204.22;5093366;28;20513;-71
2021/04/10 07:57:01;;;;;;;23.53;9.30;;;;;;;8.87;62.31;100199.63;5081178;28;20523;-70
2021/04/10 07:59:28;;;;;;;14.57;9.00;;;;;;;8.85;62.31;100199.75;5101871;28;20451;-72
2021/04/10 08:01:54;;;;;;;21.50;9.80;;;;;;;8.87;61.85;100204.97;5093817;28;20485;-71
2021/04/10 08:04:21;;;;;;;13.30;9.20;;;;;;;9.28;60.84;100205.88;5094896;28;20428;-71
2021/04/10 08:06:57;;;;;;;23.30;10.50;;;;;;;9.78;59.59;100213.94;5082226;28;20475;-72
2021/04/10 08:09:30;;;;;;;17.50;9.37;;;;;;;9.32;60.54;100209.13;5093511;28;20509;-72
2021/04/10 08:11:57;;;;;;;14.43;9.60;;;;;;;9.42;60.53;100213.50;5080113;28;20480;-72
2021/04/10 08:14:24;;;;;;;17.80;8.90;;;;;;;9.39;60.37;100211.13;5100289;28;20475;-72
2021/04/10 08:16:51;;;;;;;18.03;9.83;;;;;;;9.05;61.00;100214.03;5102332;28;20475;-70
2021/04/10 08:19:27;;;;;;;17.50;9.40;;;;;;;8.84;62.37;100210.56;5099884;28;20443;-70
2021/04/10 08:21:54;;;;;;;15.77;8.93;;;;;;;8.65;62.35;100206.78;5100278;28;20486;-72
2021/04/10 08:24:32;;;;;;;17.13;9.93;;;;;;;9.08;61.55;100217.41;5099967;28;20482;-71
2021/04/10 08:27:01;;;;;;;17.93;9.93;;;;;;;9.55;60.80;100223.13;5103610;28;20482;-72
2021/04/10 08:29:28;;;;;;;15.67;9.60;;;;;;;9.39;60.78;100219.13;5103989;28;20554;-74
2021/04/10 08:31:55;;;;;;;18.47;9.70;;;;;;;9.42;60.43;100220.69;5103441;28;20486;-75
2021/04/10 08:34:21;;;;;;;17.30;9.97;;;;;;;9.47;60.36;100214.94;5104436;28;20477;-74
2021/04/10 08:36:51;;;;;;;16.37;9.57;;;;;;;9.78;59.44;100227.28;5103794;28;20510;-73
2021/04/10 08:39:19;;;;;;;18.27;10.40;;;;;;;9.72;59.48;100232.31;5103953;28;20480;-73
2021/04/10 08:41:47;;;;;;;16.10;10.07;;;;;;;10.45;58.08;100234.72;5097021;28;20483;-72
2021/04/10 08:44:14;;;;;;;21.87;12.17;;;;;;;9.65;59.41;100229.34;5103886;28;20442;-72
2021/04/10 08:46:42;;;;;;;18.27;10.53;;;;;;;9.72;59.57;100238.53;5101707;28;20494;-70
2021/04/10 08:49:08;;;;;;;16.80;10.00;;;;;;;9.22;60.64;100231.28;5101904;28;20443;-71
2021/04/10 08:51:39;;;;;;;19.67;10.70;;;;;;;9.53;60.25;100241.09;5098673;28;20483;-71
2021/04/10 08:54:08;;;;;;;22.70;12.00;;;;;;;9.57;60.51;100232.69;5103153;28;20515;-69
2021/04/10 08:56:35;;;;;;;19.53;12.00;;;;;;;9.37;60.62;100237.13;5102847;28;20842;-72
2021/04/10 08:59:12;;;;;;;27.37;12.20;;;;;;;9.40;60.38;100241.31;5103388;28;20467;-71
2021/04/10 09:01:41;;;;;;;15.00;11.03;;;;;;;9.32;60.87;100249.13;5103021;28;20483;-72
2021/04/10 09:04:09;;;;;;;18.13;11.80;;;;;;;9.47;60.37;100245.16;5101068;28;20493;-70
2021/04/10 09:06:49;;;;;;;16.93;12.13;;;;;;;9.44;60.79;100242.72;5102426;28;20485;-71
2021/04/10 09:09:31;;;;;;;17.50;11.30;;;;;;;9.24;61.30;100252.47;5100800;28;20496;-71
2021/04/10 09:12:20;;;;;;;22.83;12.50;;;;;;;9.60;60.55;100247.59;5102720;28;20486;-72
2021/04/10 09:14:48;;;;;;;21.60;14.57;;;;;;;9.59;60.30;100256.56;5100439;28;20463;-72
2021/04/10 09:17:15;;;;;;;20.23;13.07;;;;;;;9.38;60.69;100265.47;5097453;28;20484;-71
2021/04/10 09:19:42;;;;;;;18.27;13.23;;;;;;;9.72;59.98;100253.66;5097719;28;20512;-72
2021/04/10 09:22:14;;;;;;;21.70;13.70;;;;;;;9.95;59.14;100257.81;5099716;28;20475;-71
2021/04/10 09:24:42;;;;;;;22.67;13.63;;;;;;;10.34;58.32;100246.41;5102616;28;20439;-71
2021/04/10 09:27:17;;;;;;;17.00;13.10;;;;;;;11.09;56.51;100260.88;5099228;28;20543;-72
2021/04/10 09:29:55;;;;;;;18.67;12.60;;;;;;;11.34;55.62;100263.91;5102604;28;20437;-72
2021/04/10 09:32:33;;;;;;;22.90;13.47;;;;;;;11.38;55.33;100265.28;5103062;28;20474;-72
2021/04/10 09:35:01;;;;;;;22.30;15.23;;;;;;;10.89;56.17;100265.41;5102350;28;20533;-73
2021/04/10 09:38:01;;;;;;;21.33;15.20;;;;;;;10.88;55.93;100268.22;5100028;28;20478;-71
2021/04/10 09:40:49;;;;;;;22.30;13.17;;;;;;;10.98;55.84;100260.19;5100018;28;20471;-74
2021/04/10 09:43:20;;;;;;;23.07;14.30;;;;;;;10.93;56.83;100257.94;5101357;28;20440;-73
2021/04/10 09:45:48;;;;;;;23.37;12.80;;;;;;;11.58;55.31;100265.22;5101053;28;20474;-71
2021/04/10 09:48:22;;;;;;;14.40;10.93;;;;;;;11.15;56.12;100261.28;5101704;28;20454;-72
2021/04/10 09:51:06;;;;;;;26.23;13.13;;;;;;;10.93;56.61;100266.78;5087241;28;20490;-72
2021/04/10 09:53:33;;;;;;;19.43;12.93;;;;;;;11.10;56.42;100264.38;5100347;28;20905;-71
2021/04/10 09:56:04;;;;;;;20.13;11.97;;;;;;;10.96;56.46;100262.16;5101724;28;20502;-71
2021/04/10 09:58:39;;;;;;;18.50;12.10;;;;;;;10.56;57.77;100266.69;5099868;28;20534;-71
2021/04/10 10:01:11;;;;;;;23.40;13.20;;;;;;;10.34;58.25;100267.78;5098954;28;20459;-71
2021/04/10 10:03:37;;;;;;;23.63;12.40;;;;;;;10.22;59.55;100271.53;5102050;28;20459;-71
2021/04/10 10:06:03;;;;;;;20.50;13.83;;;;;;;10.22;59.23;100274.19;5101232;28;20479;-71
2021/04/10 10:08:36;;;;;;;19.07;12.70;;;;;;;10.15;59.30;100265.88;5097945;28;20459;-71
2021/04/10 10:11:06;;;;;;;25.60;14.07;;;;;;;10.09;59.08;100269.13;5101129;28;20997;-71
2021/04/10 10:13:34;;;;;;;23.90;14.13;;;;;;;10.29;58.54;100270.81;5099235;28;20532;-72
2021/04/10 10:16:02;;;;;;;22.43;14.10;;;;;;;10.27;59.05;100271.97;5100108;28;20471;-72
2021/04/10 10:18:30;;;;;;;23.60;12.73;;;;;;;10.41;58.80;100274.25;5094982;28;20463;-71
2021/04/10 10:20:58;;;;;;;27.07;14.20;;;;;;;9.74;60.98;100267.75;5086839;28;20509;-71
2021/04/10 10:23:26;;;;;;;22.97;13.17;;;;;;;10.45;58.79;100262.31;5097124;28;20972;-65
2021/04/10 10:25:54;;;;;;;23.03;14.40;;;;;;;10.47;58.77;100263.03;5094487;28;20475;-71
2021/04/10 10:28:21;;;;;;;20.47;13.17;;;;;;;10.54;59.05;100266.81;5097817;28;20462;-72
2021/04/10 10:30:48;;;;;;;18.77;13.30;;;;;;;10.68;58.25;100270.91;5099978;28;20467;-69
2021/04/10 10:36:38;;;;;;;26.47;14.90;;;;;;;9.98;60.63;100264.72;5086971;28;20498;-70
2021/04/10 10:39:05;;;;;;;22.63;13.90;;;;;;;10.05;60.65;100259.66;5096079;28;20446;-70
2021/04/10 10:41:42;;;;;;;19.47;14.00;;;;;;;10.37;59.26;100254.16;5100366;28;20479;-69
2021/04/10 10:44:09;;;;;;;25.20;16.63;;;;;;;10.22;59.64;100261.66;5100428;28;20526;-72
2021/04/10 10:46:35;;;;;;;18.20;13.67;;;;;;;10.49;59.06;100254.88;5100096;28;20509;-71
2021/04/10 10:49:07;;;;;;;26.23;14.27;;;;;;;10.80;58.13;100254.69;5100563;28;20459;-68
2021/04/10 10:51:36;;;;;;;19.37;11.90;;;;;;;11.26;56.37;100242.38;5099562;28;20496;-70
2021/04/10 10:54:02;;;;;;;19.43;13.53;;;;;;;11.79;55.10;100246.28;5098878;28;20443;-75
2021/04/10 10:56:29;;;;;;;23.60;12.97;;;;;;;12.01;53.82;100245.03;5099522;28;20483;-73
2021/04/10 10:58:58;;;;;;;24.10;12.83;;;;;;;12.04;53.97;100247.41;5098166;28;20455;-77
2021/04/10 11:01:25;;;;;;;19.37;12.07;;;;;;;11.71;54.46;100246.16;5089917;28;20485;-78
2021/04/10 11:03:54;;;;;;;18.90;12.03;;;;;;;11.74;54.13;100241.34;5100822;28;20447;-77
2021/04/10 11:06:22;;;;;;;16.33;10.70;;;;;;;11.75;54.14;100244.88;5099430;28;20480;-78
2021/04/10 11:08:49;;;;;;;17.97;12.27;;;;;;;12.21;53.52;100233.19;5099719;28;20455;-78
2021/04/10 11:11:16;;;;;;;21.90;12.27;;;;;;;12.52;52.38;100235.53;5100187;28;21307;-74
2021/04/10 11:13:44;;;;;;;16.53;12.10;;;;;;;12.33;52.49;100228.47;5100054;28;20463;-76
2021/04/10 11:16:12;;;;;;;17.70;11.87;;;;;;;12.58;52.24;100226.84;5099739;28;21204;-78
2021/04/10 11:18:39;;;;;;;19.67;12.17;;;;;;;13.09;50.83;100220.84;5100801;28;20462;-75
2021/04/10 11:21:23;;;;;;;16.47;12.53;;;;;;;12.80;50.95;100222.84;5098951;28;21032;-77
2021/04/10 11:23:59;;;;;;;20.07;12.00;;;;;;;13.30;50.50;100221.34;5100309;28;20478;-75
2021/04/10 11:26:36;;;;;;;18.50;13.87;;;;;;;12.69;51.96;100217.75;5099557;28;20535;-78
2021/04/10 11:29:40;;;;;;;18.33;12.83;;;;;;;12.26;52.77;100211.31;5115757;28;20437;-80